Rotselaar, Belgium
Current Conditions -  °F | °C
As of 12:50 PM on Tuesday 21 Oct 2014 (Local Time) from EBBR Reporting Station
Broken Clouds Broken Clouds  
Wind Chill: 14°   Ceiling: 2800
Heat Index: 14°   Visibility: 6mi
Dew Point: 11°   Wind: 22mph
Humidity: 82%   Direction: 220°SW
Pressure: 29.59"   Gusts: NA
Location:  50.95°N, 4.72°E
Report Text: EBBR 211050Z 22019KT 9999 FEW018 BKN028 14/11 Q1002 TEMPO 21020G35KT 3000 SHRA BKN014 BECMG 28020G35KT
Loading
Personal Weather Stations






























Interactive Weather Map
Tropical Storm Tracking
New forecast layout! Learn more

10-Day Weather Forecast

Advertisements
Track Severe Weather on mobile